createdAt,value
2019-02-05T00:03:58.891Z,31.60
2019-02-05T00:08:06.993Z,30.13
2019-02-05T00:12:14.886Z,22.57
2019-02-05T00:16:22.786Z,20.23
2019-02-05T00:20:30.698Z,17.73
2019-02-05T00:24:38.604Z,18.63
2019-02-05T00:28:46.514Z,18.17
2019-02-05T00:32:54.274Z,17.93
2019-02-05T00:37:02.196Z,17.43
2019-02-05T00:41:10.099Z,17.90
2019-02-05T00:45:18.198Z,17.13
2019-02-05T00:49:26.135Z,17.57
2019-02-05T00:53:33.635Z,18.00
2019-02-05T00:57:41.544Z,16.70
2019-02-05T01:01:49.454Z,18.57
2019-02-05T01:05:57.272Z,16.50
2019-02-05T01:10:07.947Z,21.17
2019-02-05T01:14:15.693Z,21.60
2019-02-05T01:18:23.843Z,22.17
2019-02-05T01:22:31.761Z,22.07
2019-02-05T01:26:39.659Z,18.73
2019-02-05T01:30:47.571Z,20.83
2019-02-05T01:34:56.461Z,23.77
2019-02-05T01:39:05.587Z,21.93
2019-02-05T01:43:13.882Z,24.20
2019-02-05T01:47:21.893Z,23.73
2019-02-05T01:51:29.614Z,21.03
2019-02-05T01:55:37.316Z,21.53
2019-02-05T01:59:44.819Z,22.17
2019-02-05T02:03:53.109Z,22.20
2019-02-05T02:08:01.111Z,24.17
2019-02-05T02:12:08.616Z,20.83
2019-02-05T02:16:16.527Z,18.20
2019-02-05T02:20:24.631Z,19.97
2019-02-05T02:24:32.629Z,19.17
2019-02-05T02:28:41.688Z,21.10
2019-02-05T02:32:49.603Z,18.73
2019-02-05T02:36:57.523Z,22.20
2019-02-05T02:41:05.580Z,19.27
2019-02-05T02:45:13.619Z,18.23
2019-02-05T02:49:21.516Z,16.77
2019-02-05T02:53:29.486Z,19.80
2019-02-05T02:57:37.378Z,18.90
2019-02-05T03:01:45.301Z,18.07
2019-02-05T03:05:52.849Z,16.33
2019-02-05T03:10:00.367Z,15.03
2019-02-05T03:14:08.161Z,13.83
2019-02-05T03:18:15.864Z,15.50
2019-02-05T03:22:23.784Z,13.33
2019-02-05T03:26:31.776Z,13.23
2019-02-05T03:30:39.481Z,14.53
2019-02-05T03:34:47.089Z,14.17
2019-02-05T03:38:55.007Z,15.90
2019-02-05T03:43:03.193Z,16.43
2019-02-05T03:47:11.507Z,15.50
2019-02-05T03:51:37.112Z,18.20
2019-02-05T03:56:05.910Z,15.70
2019-02-05T04:01:04.522Z,16.67
2019-02-05T04:05:50.927Z,16.90
2019-02-05T04:10:51.321Z,15.57
2019-02-05T04:15:21.396Z,13.17
2019-02-05T04:19:57.306Z,16.43
2019-02-05T04:24:45.834Z,14.53
2019-02-05T04:29:16.907Z,14.83
2019-02-05T04:33:50.030Z,14.27
2019-02-05T04:38:19.904Z,16.30
2019-02-05T04:43:05.725Z,14.70
2019-02-05T04:47:52.470Z,16.73
2019-02-05T04:52:46.941Z,16.60
2019-02-05T04:57:56.685Z,17.17
2019-02-05T05:02:35.896Z,16.70
2019-02-05T05:07:42.077Z,16.53
2019-02-05T05:11:49.794Z,17.07
2019-02-05T05:15:57.714Z,16.40
2019-02-05T05:20:07.830Z,13.27
2019-02-05T05:24:15.645Z,21.77
2019-02-05T05:28:23.654Z,18.73
2019-02-05T05:32:31.961Z,15.70
2019-02-05T05:36:48.605Z,16.57
2019-02-05T05:40:56.578Z,16.63
2019-02-05T05:45:04.316Z,15.50
2019-02-05T05:49:12.689Z,16.13
2019-02-05T05:53:20.884Z,16.50
2019-02-05T05:57:28.793Z,14.13
2019-02-05T06:01:36.370Z,13.90
2019-02-05T06:05:44.388Z,12.03
2019-02-05T06:09:52.096Z,14.43
2019-02-05T06:14:00.017Z,13.33
2019-02-05T06:18:08.401Z,12.53
2019-02-05T06:22:16.349Z,12.07
2019-02-05T06:26:24.245Z,12.07
2019-02-05T06:30:31.959Z,10.67
2019-02-05T06:34:39.669Z,10.67
2019-02-05T06:38:47.372Z,9.90
2019-02-05T06:42:55.283Z,10.90
2019-02-05T06:47:03.294Z,10.67
2019-02-05T06:51:11.017Z,11.30
2019-02-05T06:55:18.546Z,11.13
2019-02-05T06:59:26.067Z,11.37
2019-02-05T07:03:33.979Z,12.57
2019-02-05T07:07:41.879Z,12.93
2019-02-05T07:11:49.859Z,12.83
2019-02-05T07:15:57.828Z,11.07
2019-02-05T07:20:07.417Z,12.17
2019-02-05T07:24:15.279Z,10.20
2019-02-05T07:28:22.771Z,9.90
2019-02-05T07:32:30.463Z,10.53
2019-02-05T07:36:38.456Z,10.40
2019-02-05T07:40:46.632Z,10.97
2019-02-05T07:44:54.509Z,11.83
2019-02-05T07:49:02.425Z,12.33
2019-02-05T07:53:10.030Z,14.30
2019-02-05T07:57:17.946Z,15.07
2019-02-05T08:01:25.863Z,13.50
2019-02-05T08:05:34.151Z,14.07
2019-02-05T08:09:41.921Z,17.43
2019-02-05T08:13:49.815Z,16.10
2019-02-05T08:17:57.796Z,17.60
2019-02-05T08:22:05.629Z,17.60
2019-02-05T08:26:13.406Z,17.73
2019-02-05T08:30:23.783Z,17.80
2019-02-05T08:34:31.335Z,15.57
2019-02-05T08:38:38.865Z,14.53
2019-02-05T08:42:46.662Z,15.80
2019-02-05T08:46:54.369Z,15.80
2019-02-05T08:51:02.262Z,18.20
2019-02-05T08:55:11.634Z,14.53
2019-02-05T08:59:19.320Z,14.60
2019-02-05T09:03:28.227Z,15.03
2019-02-05T09:07:36.011Z,11.27
2019-02-05T09:11:43.908Z,10.93
2019-02-05T09:15:51.846Z,9.30
2019-02-05T09:19:59.330Z,8.90
2019-02-05T09:24:07.771Z,10.03
2019-02-05T09:28:15.696Z,9.83
2019-02-05T09:32:23.597Z,9.53
2019-02-05T09:36:31.082Z,7.27
2019-02-05T09:40:38.980Z,7.83
2019-02-05T09:44:46.670Z,8.37
2019-02-05T09:48:54.566Z,8.80
2019-02-05T09:53:02.946Z,9.20
2019-02-05T09:57:11.860Z,8.33
2019-02-05T10:01:19.556Z,8.83
2019-02-05T10:05:27.908Z,9.23
2019-02-05T10:09:35.577Z,9.13
2019-02-05T10:13:43.478Z,12.70
2019-02-05T10:17:51.231Z,8.83
2019-02-05T10:21:59.100Z,9.53
2019-02-05T10:26:07.013Z,9.70
2019-02-05T10:30:23.941Z,9.30
2019-02-05T10:34:34.150Z,11.87
2019-02-05T10:43:15.116Z,9.53
2019-02-05T10:47:23.001Z,8.90
2019-02-05T10:51:30.477Z,8.40
2019-02-05T10:55:37.971Z,7.27
2019-02-05T10:59:45.872Z,8.10
2019-02-05T11:03:53.768Z,6.90
2019-02-05T11:08:01.244Z,6.33
2019-02-05T11:12:08.870Z,7.03
2019-02-05T11:16:16.337Z,8.27
2019-02-05T11:20:25.265Z,7.83
2019-02-05T11:24:33.203Z,10.00
2019-02-05T11:28:40.776Z,6.87
2019-02-05T11:32:48.465Z,12.43
2019-02-05T11:36:56.069Z,7.20
2019-02-05T11:41:03.961Z,6.93
2019-02-05T11:45:13.262Z,6.03
2019-02-05T11:49:20.735Z,5.37
2019-02-05T11:53:28.324Z,5.60
2019-02-05T11:57:36.210Z,5.77
2019-02-05T12:01:43.782Z,6.70
2019-02-05T12:05:51.872Z,6.80
2019-02-05T12:09:59.643Z,7.47
2019-02-05T12:14:07.220Z,8.80
2019-02-05T12:18:15.277Z,6.23
2019-02-05T12:22:23.558Z,13.07
2019-02-05T12:26:31.444Z,6.33
2019-02-05T12:30:44.979Z,8.43
2019-02-05T12:34:48.713Z,5.40
2019-02-05T12:38:56.631Z,7.60
2019-02-05T12:43:05.119Z,7.80
2019-02-05T12:47:13.002Z,17.27
2019-02-05T12:51:20.482Z,12.80
2019-02-05T12:55:28.245Z,14.43
2019-02-05T12:59:36.136Z,15.40
2019-02-05T13:03:43.826Z,9.53
2019-02-05T13:07:51.812Z,7.43
2019-02-05T13:11:59.953Z,7.00
2019-02-05T13:16:07.841Z,6.60
2019-02-05T13:20:19.320Z,8.10
2019-02-05T13:24:27.211Z,8.37
2019-02-05T13:28:35.100Z,9.37
2019-02-05T13:32:42.992Z,8.50
2019-02-05T13:36:51.481Z,10.47
2019-02-05T13:40:59.361Z,9.73
2019-02-05T13:45:08.711Z,8.63
2019-02-05T13:49:17.608Z,9.70
2019-02-05T13:53:25.288Z,8.23
2019-02-05T13:57:32.776Z,7.73
2019-02-05T14:01:40.666Z,9.63
2019-02-05T14:05:48.765Z,8.53
2019-02-05T14:09:56.658Z,10.30
2019-02-05T14:14:04.554Z,10.30
2019-02-05T14:18:12.636Z,8.97
2019-02-05T14:22:20.515Z,10.50
2019-02-05T14:26:28.399Z,10.17
2019-02-05T14:30:43.255Z,15.13
2019-02-05T14:34:50.930Z,10.10
2019-02-05T14:38:58.619Z,10.60
2019-02-05T14:43:07.496Z,10.30
2019-02-05T14:47:15.195Z,12.23
2019-02-05T14:51:23.071Z,12.67
2019-02-05T14:55:30.554Z,14.07
2019-02-05T14:59:38.438Z,18.17
2019-02-05T15:03:46.310Z,14.23
2019-02-05T15:07:54.194Z,12.40
2019-02-05T15:12:01.994Z,14.03
2019-02-05T15:16:09.883Z,12.73
2019-02-05T15:20:20.479Z,14.17
2019-02-05T15:24:37.053Z,15.50
2019-02-05T15:28:37.547Z,15.57
2019-02-05T15:33:00.948Z,17.93
2019-02-05T15:37:08.848Z,15.43
2019-02-05T15:41:17.026Z,16.27
2019-02-05T15:45:25.070Z,16.63
2019-02-05T15:49:32.964Z,15.33
2019-02-05T15:53:40.447Z,23.10
2019-02-05T15:57:48.513Z,16.23
2019-02-05T16:02:06.061Z,17.27
2019-02-05T16:06:05.914Z,15.07
2019-02-05T16:10:15.072Z,14.50
2019-02-05T16:14:22.757Z,15.10
2019-02-05T16:18:30.632Z,14.03
2019-02-05T16:22:38.597Z,13.87
2019-02-05T16:26:46.478Z,14.27
2019-02-05T16:30:54.363Z,13.50
2019-02-05T16:35:02.261Z,17.33
2019-02-05T16:39:11.326Z,14.93
2019-02-05T16:43:18.818Z,20.07
2019-02-05T16:47:26.710Z,17.80
2019-02-05T16:51:34.647Z,18.13
2019-02-05T16:55:42.533Z,21.73
2019-02-05T16:59:51.049Z,20.47
2019-02-05T17:03:58.993Z,16.97
2019-02-05T17:08:07.282Z,15.77
2019-02-05T17:12:15.234Z,16.93
2019-02-05T17:16:22.735Z,17.47
2019-02-05T17:20:31.086Z,16.90
2019-02-05T17:24:38.744Z,18.83
2019-02-05T17:28:46.357Z,18.93
2019-02-05T17:32:54.055Z,20.93
2019-02-05T17:37:01.696Z,29.13
2019-02-05T17:41:09.682Z,26.07
2019-02-05T17:45:31.768Z,26.80
2019-02-05T17:49:39.273Z,25.60
2019-02-05T17:53:47.114Z,23.43
2019-02-05T17:57:54.706Z,20.40
2019-02-05T18:02:04.614Z,19.07
2019-02-05T18:06:12.108Z,18.53
2019-02-05T18:10:22.227Z,18.63
2019-02-05T18:14:29.722Z,22.17
2019-02-05T18:18:37.322Z,18.33
2019-02-05T18:22:45.105Z,21.20
2019-02-05T18:26:52.876Z,17.47
2019-02-05T18:31:01.279Z,19.20
2019-02-05T18:35:09.548Z,19.63
2019-02-05T18:39:17.038Z,18.77
2019-02-05T18:43:24.719Z,22.10
2019-02-05T18:47:32.788Z,20.97
2019-02-05T18:51:40.693Z,19.03
2019-02-05T18:55:49.055Z,18.93
2019-02-05T18:59:57.505Z,20.13
2019-02-05T19:04:05.243Z,17.47
2019-02-05T19:08:16.351Z,17.10
2019-02-05T19:12:22.522Z,17.87
2019-02-05T19:16:31.832Z,19.20
2019-02-05T19:20:39.736Z,18.10
2019-02-05T19:24:53.455Z,18.30
2019-02-05T19:29:01.654Z,16.53
2019-02-05T19:33:09.242Z,16.80
2019-02-05T19:37:16.835Z,15.07
2019-02-05T19:41:24.553Z,15.70
2019-02-05T19:45:59.937Z,16.83
2019-02-05T19:50:09.577Z,15.77
2019-02-05T19:54:17.849Z,15.90
2019-02-05T19:58:25.554Z,14.90
2019-02-05T20:02:33.540Z,18.03
2019-02-05T20:06:41.225Z,16.90
2019-02-05T20:10:49.130Z,16.63
2019-02-05T20:14:57.017Z,15.33
2019-02-05T20:19:05.047Z,14.20
2019-02-05T20:23:12.945Z,17.03
2019-02-05T20:27:20.617Z,15.40
2019-02-05T20:31:28.483Z,16.27
2019-02-05T20:35:36.382Z,15.90
2019-02-05T20:39:43.904Z,15.53
2019-02-05T20:43:53.629Z,16.47
2019-02-05T20:48:01.531Z,18.00
2019-02-05T20:52:09.631Z,18.30
2019-02-05T20:56:17.201Z,17.13
2019-02-05T21:00:25.157Z,16.03
2019-02-05T21:04:35.366Z,15.30
2019-02-05T21:08:42.475Z,16.33
2019-02-05T21:12:50.374Z,17.27
2019-02-05T21:16:58.282Z,16.53
2019-02-05T21:21:06.282Z,18.27
2019-02-05T21:25:16.142Z,16.10
2019-02-05T21:29:24.029Z,15.13
2019-02-05T21:33:31.923Z,14.73
2019-02-05T21:37:39.920Z,14.53
2019-02-05T21:41:47.925Z,15.93
2019-02-05T21:45:55.823Z,15.90
2019-02-05T21:50:05.566Z,16.47
2019-02-05T21:54:13.280Z,17.07
2019-02-05T21:58:21.202Z,16.43
2019-02-05T22:02:29.111Z,20.90
2019-02-05T22:06:37.014Z,15.20
2019-02-05T22:10:44.913Z,18.47
2019-02-05T22:14:52.837Z,18.07
2019-02-05T22:19:00.936Z,12.77
2019-02-05T22:23:08.892Z,12.60
2019-02-05T22:27:16.793Z,10.87
2019-02-05T22:31:24.298Z,11.10
2019-02-05T22:35:32.209Z,11.83
2019-02-05T22:39:39.692Z,11.07
2019-02-05T22:43:47.631Z,10.40
2019-02-05T22:47:55.517Z,9.90
2019-02-05T22:52:03.008Z,8.60
2019-02-05T22:56:10.892Z,9.70
2019-02-05T23:00:48.315Z,9.63
2019-02-05T23:05:25.333Z,10.30
2019-02-05T23:09:56.480Z,10.00
2019-02-05T23:14:04.614Z,10.67
2019-02-05T23:18:12.428Z,9.80
2019-02-05T23:22:20.241Z,10.00
2019-02-05T23:26:28.128Z,10.50
2019-02-05T23:30:36.681Z,10.53
2019-02-05T23:34:44.395Z,10.30
2019-02-05T23:38:52.397Z,9.23
2019-02-05T23:43:00.340Z,10.23
2019-02-05T23:47:07.834Z,10.73
2019-02-05T23:51:15.723Z,11.00
2019-02-05T23:55:23.618Z,10.53
2019-02-05T23:59:31.216Z,11.27
